Time;durP1;ratioP1;P1;durP2;ratioP2;P2;SDS_P1;SDS_P2;PMS_P1;PMS_P2;Temp;Humidity;BMP_temperature;BMP_pressure;BME280_temperature;BME280_humidity;BME280_pressure;Samples;Min_cycle;Max_cycle;Signal;HPM_P1;HPM_P2
2023/08/14 00:01:19;;;;;;;10.15;4.88;;;;;;;;;;5032520;28;20025;-73
2023/08/14 00:03:45;;;;;;;14.02;4.55;;;;;;;;;;5034005;28;20037;-73
2023/08/14 00:06:11;;;;;;;9.40;4.72;;;;;;;;;;5033469;28;20030;-74
2023/08/14 00:08:37;;;;;;;10.02;4.85;;;;;;;;;;5034102;28;20030;-74
2023/08/14 00:11:03;;;;;;;10.52;5.15;;;;;;;;;;5034117;28;20029;-74
2023/08/14 00:13:29;;;;;;;11.90;5.03;;;;;;;;;;5033724;28;20109;-74
2023/08/14 00:15:55;;;;;;;14.68;5.28;;;;;;;;;;5034119;28;20028;-73
2023/08/14 00:18:21;;;;;;;11.65;5.15;;;;;;;;;;5033977;28;20030;-74
2023/08/14 00:20:47;;;;;;;11.02;4.53;;;;;;;;;;5035231;28;20032;-74
2023/08/14 00:23:13;;;;;;;12.52;4.78;;;;;;;;;;5034553;28;20485;-72
2023/08/14 00:25:39;;;;;;;14.30;4.90;;;;;;;;;;5034293;28;20030;-72
2023/08/14 00:28:05;;;;;;;13.60;5.05;;;;;;;;;;5034100;28;20049;-74
2023/08/14 00:30:31;;;;;;;11.27;5.22;;;;;;;;;;5034277;28;20040;-73
2023/08/14 00:32:57;;;;;;;12.52;5.28;;;;;;;;;;5033526;28;20029;-72
2023/08/14 00:35:23;;;;;;;11.52;5.10;;;;;;;;;;5033479;28;20029;-73
2023/08/14 00:37:50;;;;;;;10.52;4.93;;;;;;;;;;5033305;28;20166;-73
2023/08/14 00:40:16;;;;;;;16.98;5.13;;;;;;;;;;5033353;28;20022;-73
2023/08/14 00:42:45;;;;;;;12.85;5.40;;;;;;;;;;5033052;28;20123;-74
2023/08/14 00:45:11;;;;;;;13.80;4.68;;;;;;;;;;5032181;28;20021;-73
2023/08/14 00:47:37;;;;;;;12.00;4.85;;;;;;;;;;5033163;28;20147;-73
2023/08/14 00:50:04;;;;;;;13.55;5.20;;;;;;;;;;5033193;28;20044;-74
2023/08/14 00:52:32;;;;;;;13.68;5.93;;;;;;;;;;5032971;28;20111;-74
2023/08/14 00:55:00;;;;;;;17.50;5.50;;;;;;;;;;5033071;28;20029;-73
2023/08/14 00:57:26;;;;;;;13.55;5.22;;;;;;;;;;5033019;28;20087;-73
2023/08/14 00:59:52;;;;;;;11.38;5.20;;;;;;;;;;5032918;28;20034;-73
2023/08/14 01:02:19;;;;;;;13.50;5.65;;;;;;;;;;5032621;28;20039;-72
2023/08/14 01:04:45;;;;;;;13.85;4.85;;;;;;;;;;5032884;28;20026;-73
2023/08/14 01:07:11;;;;;;;15.45;4.88;;;;;;;;;;5032941;28;20120;-72
2023/08/14 01:09:37;;;;;;;14.70;4.80;;;;;;;;;;5032904;28;20480;-72
2023/08/14 01:12:08;;;;;;;14.70;4.97;;;;;;;;;;5032646;28;20076;-73
2023/08/14 01:14:34;;;;;;;13.13;4.70;;;;;;;;;;5032537;28;20083;-73
2023/08/14 01:17:04;;;;;;;13.30;5.22;;;;;;;;;;5033029;28;20036;-74
2023/08/14 01:19:32;;;;;;;10.88;4.90;;;;;;;;;;5032927;28;20026;-73
2023/08/14 01:22:08;;;;;;;18.05;5.65;;;;;;;;;;5032465;28;20041;-73
2023/08/14 01:24:40;;;;;;;7.82;4.90;;;;;;;;;;5032663;28;20550;-73
2023/08/14 01:27:06;;;;;;;14.30;5.13;;;;;;;;;;5032519;28;20025;-73
2023/08/14 01:29:34;;;;;;;10.68;4.50;;;;;;;;;;5032945;28;20393;-73
2023/08/14 01:32:00;;;;;;;11.90;4.70;;;;;;;;;;5032517;28;20251;-73
2023/08/14 01:34:26;;;;;;;10.77;4.55;;;;;;;;;;5032475;28;20034;-73
2023/08/14 01:37:12;;;;;;;11.88;4.60;;;;;;;;;;5031335;28;20235;-73
2023/08/14 01:39:44;;;;;;;16.42;5.25;;;;;;;;;;5032490;28;20046;-75
2023/08/14 01:42:18;;;;;;;14.88;4.97;;;;;;;;;;5032946;28;20228;-74
2023/08/14 01:44:45;;;;;;;13.60;4.55;;;;;;;;;;5032713;28;20043;-72
2023/08/14 01:47:24;;;;;;;9.82;4.53;;;;;;;;;;5032698;28;20021;-72
2023/08/14 01:49:51;;;;;;;10.50;4.32;;;;;;;;;;5032755;28;20383;-74
2023/08/14 01:52:17;;;;;;;13.82;4.82;;;;;;;;;;5032884;28;20032;-72
2023/08/14 01:54:43;;;;;;;11.70;4.47;;;;;;;;;;5032828;28;20029;-74
2023/08/14 01:57:08;;;;;;;10.65;4.60;;;;;;;;;;5032455;28;20029;-74
2023/08/14 01:59:42;;;;;;;11.32;4.50;;;;;;;;;;5033078;28;20463;-72
2023/08/14 02:02:08;;;;;;;11.95;5.15;;;;;;;;;;5031711;28;20026;-73
2023/08/14 02:04:34;;;;;;;13.75;4.97;;;;;;;;;;5031893;28;20022;-73
2023/08/14 02:07:00;;;;;;;10.15;4.78;;;;;;;;;;5032691;28;20446;-73
2023/08/14 02:09:26;;;;;;;13.00;4.38;;;;;;;;;;5032473;28;20109;-73
2023/08/14 02:11:52;;;;;;;17.45;5.07;;;;;;;;;;5029868;28;20029;-73
2023/08/14 02:14:18;;;;;;;11.38;4.25;;;;;;;;;;5031452;28;20627;-73
2023/08/14 02:16:44;;;;;;;11.88;4.68;;;;;;;;;;5032582;28;20030;-74
2023/08/14 02:19:10;;;;;;;9.70;4.10;;;;;;;;;;5032952;28;20501;-74
2023/08/14 02:21:36;;;;;;;10.02;4.18;;;;;;;;;;5034151;28;20026;-74
2023/08/14 02:24:02;;;;;;;11.55;4.28;;;;;;;;;;5034023;28;20029;-75
2023/08/14 02:26:28;;;;;;;12.02;4.38;;;;;;;;;;5032812;28;20105;-73
2023/08/14 02:28:54;;;;;;;11.35;4.32;;;;;;;;;;5035607;28;20501;-73
2023/08/14 02:31:20;;;;;;;12.07;4.20;;;;;;;;;;5036963;28;20109;-74
2023/08/14 02:33:46;;;;;;;9.27;3.85;;;;;;;;;;5041855;28;20087;-74
2023/08/14 02:36:12;;;;;;;14.63;4.43;;;;;;;;;;5035566;28;20033;-74
2023/08/14 02:38:38;;;;;;;10.57;4.60;;;;;;;;;;5031346;28;20486;-72
2023/08/14 02:41:06;;;;;;;13.73;4.97;;;;;;;;;;5031667;28;20084;-73
2023/08/14 02:43:32;;;;;;;15.20;4.57;;;;;;;;;;5033614;28;20538;-73
2023/08/14 02:45:58;;;;;;;10.10;4.75;;;;;;;;;;5031441;28;20496;-74
2023/08/14 02:48:24;;;;;;;11.60;4.22;;;;;;;;;;5031502;28;20033;-74
2023/08/14 02:50:50;;;;;;;10.32;4.63;;;;;;;;;;5031555;28;20056;-74
2023/08/14 02:53:16;;;;;;;10.02;4.47;;;;;;;;;;5031255;28;20419;-74
2023/08/14 02:55:42;;;;;;;10.05;4.15;;;;;;;;;;5031735;28;20021;-74
2023/08/14 02:58:08;;;;;;;13.55;4.25;;;;;;;;;;5031697;28;20029;-73
2023/08/14 03:00:34;;;;;;;10.73;3.75;;;;;;;;;;5031240;28;20105;-73
2023/08/14 03:03:00;;;;;;;7.88;3.60;;;;;;;;;;5030844;28;20380;-73
2023/08/14 03:05:26;;;;;;;11.95;4.32;;;;;;;;;;5031536;28;20048;-74
2023/08/14 03:07:52;;;;;;;8.52;4.28;;;;;;;;;;5034518;28;20474;-73
2023/08/14 03:10:18;;;;;;;8.65;4.53;;;;;;;;;;5040382;28;20036;-73
2023/08/14 03:12:44;;;;;;;11.80;5.03;;;;;;;;;;5041636;28;20368;-74
2023/08/14 03:15:10;;;;;;;8.07;3.92;;;;;;;;;;5039921;28;20081;-73
2023/08/14 03:17:36;;;;;;;10.32;4.47;;;;;;;;;;5036685;28;20538;-74
2023/08/14 03:20:04;;;;;;;10.48;4.10;;;;;;;;;;5036325;28;20029;-73
2023/08/14 03:22:30;;;;;;;14.35;4.32;;;;;;;;;;5035226;28;20018;-74
2023/08/14 03:24:56;;;;;;;10.02;4.38;;;;;;;;;;5036421;28;20430;-74
2023/08/14 03:27:22;;;;;;;12.68;4.43;;;;;;;;;;5034428;28;20028;-73
2023/08/14 03:29:48;;;;;;;11.38;3.97;;;;;;;;;;5035251;28;20105;-73
2023/08/14 03:32:14;;;;;;;15.93;4.75;;;;;;;;;;5035435;28;20115;-72
2023/08/14 03:34:40;;;;;;;13.45;4.70;;;;;;;;;;5034609;28;20057;-71
2023/08/14 03:37:06;;;;;;;13.80;4.43;;;;;;;;;;5034641;28;20021;-73
2023/08/14 03:39:31;;;;;;;14.43;4.38;;;;;;;;;;5034478;28;20379;-73
2023/08/14 03:41:57;;;;;;;11.40;4.03;;;;;;;;;;5034396;28;20018;-73
2023/08/14 03:44:23;;;;;;;12.75;5.18;;;;;;;;;;5034358;28;20033;-72
2023/08/14 03:46:49;;;;;;;12.35;5.35;;;;;;;;;;5034649;28;20485;-72
2023/08/14 03:49:16;;;;;;;15.35;4.55;;;;;;;;;;5034279;28;20116;-72
2023/08/14 03:51:42;;;;;;;10.38;4.60;;;;;;;;;;5034398;28;20037;-71
2023/08/14 03:54:08;;;;;;;12.30;4.68;;;;;;;;;;5034047;28;20034;-71
2023/08/14 03:56:34;;;;;;;13.25;5.03;;;;;;;;;;5034090;28;20029;-71
2023/08/14 03:59:00;;;;;;;14.82;6.30;;;;;;;;;;5033987;28;20056;-71
2023/08/14 04:01:26;;;;;;;12.32;6.68;;;;;;;;;;5034106;28;20021;-71
2023/08/14 04:03:52;;;;;;;13.75;6.13;;;;;;;;;;5033857;28;20424;-71
2023/08/14 04:06:19;;;;;;;15.43;5.53;;;;;;;;;;5034089;28;20056;-71
2023/08/14 04:08:45;;;;;;;12.60;5.55;;;;;;;;;;5034043;28;20452;-71
2023/08/14 04:11:11;;;;;;;15.77;5.55;;;;;;;;;;5033927;28;20100;-71
2023/08/14 04:13:37;;;;;;;14.30;5.50;;;;;;;;;;5033446;28;20057;-71
2023/08/14 04:16:03;;;;;;;21.25;5.50;;;;;;;;;;5034457;28;20029;-72
2023/08/14 04:18:32;;;;;;;12.52;5.45;;;;;;;;;;5033365;28;20033;-72
2023/08/14 04:20:58;;;;;;;15.27;6.28;;;;;;;;;;5033858;28;20394;-73
2023/08/14 04:23:25;;;;;;;14.48;5.57;;;;;;;;;;5033595;28;20435;-73
2023/08/14 04:25:51;;;;;;;11.65;5.28;;;;;;;;;;5033615;28;20077;-73
2023/08/14 04:28:17;;;;;;;16.48;4.82;;;;;;;;;;5033451;28;20069;-73
2023/08/14 04:30:43;;;;;;;12.13;4.90;;;;;;;;;;5033510;28;20411;-72
2023/08/14 04:33:09;;;;;;;14.15;4.82;;;;;;;;;;5033244;28;20025;-72
2023/08/14 04:35:37;;;;;;;20.83;5.05;;;;;;;;;;5031778;28;20060;-76
2023/08/14 04:38:04;;;;;;;10.32;5.07;;;;;;;;;;5032577;28;20021;-76
2023/08/14 04:40:30;;;;;;;11.50;4.88;;;;;;;;;;5031156;28;20420;-75
2023/08/14 04:42:56;;;;;;;13.25;5.00;;;;;;;;;;5033128;28;20060;-75
2023/08/14 04:45:22;;;;;;;15.05;4.93;;;;;;;;;;5033038;28;20018;-75
2023/08/14 04:47:48;;;;;;;13.60;4.80;;;;;;;;;;5034225;28;20075;-77
2023/08/14 04:50:14;;;;;;;16.48;5.45;;;;;;;;;;5038585;28;20029;-75
2023/08/14 04:52:40;;;;;;;14.55;5.10;;;;;;;;;;5035264;28;20025;-75
2023/08/14 04:55:06;;;;;;;18.35;6.85;;;;;;;;;;5031677;28;20445;-75
2023/08/14 04:57:32;;;;;;;11.93;5.35;;;;;;;;;;5032895;28;20030;-72
2023/08/14 04:59:58;;;;;;;14.10;5.53;;;;;;;;;;5032970;28;20065;-72
2023/08/14 05:02:24;;;;;;;16.08;4.75;;;;;;;;;;5032752;28;20026;-72
2023/08/14 05:04:50;;;;;;;18.08;5.68;;;;;;;;;;5033159;28;20038;-73
2023/08/14 05:07:16;;;;;;;13.70;4.85;;;;;;;;;;5032895;28;20072;-74
2023/08/14 05:09:42;;;;;;;9.85;4.50;;;;;;;;;;5032812;28;20033;-72
2023/08/14 05:12:08;;;;;;;16.25;5.45;;;;;;;;;;5032649;28;20029;-73
2023/08/14 05:14:34;;;;;;;18.63;6.05;;;;;;;;;;5032536;28;20128;-73
2023/08/14 05:17:00;;;;;;;14.18;5.15;;;;;;;;;;5032526;28;20057;-72
2023/08/14 05:19:26;;;;;;;12.63;5.15;;;;;;;;;;5029899;28;20156;-75
2023/08/14 05:21:52;;;;;;;12.98;5.50;;;;;;;;;;5031847;28;20550;-74
2023/08/14 05:24:18;;;;;;;11.60;4.82;;;;;;;;;;5033149;28;20499;-73
2023/08/14 05:26:44;;;;;;;12.73;4.97;;;;;;;;;;5033069;28;20044;-72
2023/08/14 05:29:10;;;;;;;14.95;5.53;;;;;;;;;;5026069;28;20476;-73
2023/08/14 05:31:37;;;;;;;15.13;5.32;;;;;;;;;;5029859;28;20154;-74
2023/08/14 05:34:03;;;;;;;11.77;4.53;;;;;;;;;;5031711;28;20022;-73
2023/08/14 05:36:29;;;;;;;20.02;5.30;;;;;;;;;;5032244;28;20033;-73
2023/08/14 05:38:55;;;;;;;10.88;4.22;;;;;;;;;;5031171;28;20181;-73
2023/08/14 05:41:21;;;;;;;12.15;5.22;;;;;;;;;;5035063;28;20390;-72
2023/08/14 05:43:48;;;;;;;13.05;5.70;;;;;;;;;;5032014;28;20025;-75
2023/08/14 05:46:14;;;;;;;18.63;5.60;;;;;;;;;;5027379;28;20380;-74
2023/08/14 05:48:40;;;;;;;15.02;5.30;;;;;;;;;;5030600;28;20029;-75
2023/08/14 05:51:06;;;;;;;17.85;5.32;;;;;;;;;;5032456;28;20065;-73
2023/08/14 05:53:32;;;;;;;18.35;5.25;;;;;;;;;;5031199;28;20034;-75
2023/08/14 05:55:58;;;;;;;17.25;5.50;;;;;;;;;;5030530;28;20471;-75
2023/08/14 05:58:24;;;;;;;13.25;5.70;;;;;;;;;;5031699;28;20105;-73
2023/08/14 06:00:50;;;;;;;17.50;5.63;;;;;;;;;;5031825;28;20025;-75
2023/08/14 06:03:16;;;;;;;17.30;5.38;;;;;;;;;;5034846;28;20025;-73
2023/08/14 06:05:42;;;;;;;16.25;5.95;;;;;;;;;;5032810;28;20052;-74
2023/08/14 06:08:08;;;;;;;18.73;5.75;;;;;;;;;;5037066;28;20103;-74
2023/08/14 06:10:34;;;;;;;15.73;5.82;;;;;;;;;;5036342;28;20033;-73
2023/08/14 06:13:00;;;;;;;16.75;5.53;;;;;;;;;;5032896;28;20021;-73
2023/08/14 06:15:27;;;;;;;16.40;5.55;;;;;;;;;;5031626;28;20036;-75
2023/08/14 06:17:53;;;;;;;22.42;5.35;;;;;;;;;;5031990;28;20383;-74
2023/08/14 06:20:20;;;;;;;14.15;5.38;;;;;;;;;;5031959;28;20108;-74
2023/08/14 06:22:46;;;;;;;17.50;5.93;;;;;;;;;;5031458;28;20352;-75
2023/08/14 06:25:13;;;;;;;17.00;5.97;;;;;;;;;;5031812;28;20033;-72
2023/08/14 06:27:40;;;;;;;24.80;6.40;;;;;;;;;;5032450;28;20036;-72
2023/08/14 06:30:08;;;;;;;15.00;6.00;;;;;;;;;;5031691;28;20079;-73
2023/08/14 06:32:34;;;;;;;17.92;6.15;;;;;;;;;;5031221;28;20026;-73
2023/08/14 06:35:00;;;;;;;15.80;4.95;;;;;;;;;;5031993;28;20388;-75
2023/08/14 06:37:26;;;;;;;13.70;5.35;;;;;;;;;;5035430;28;20087;-73
2023/08/14 06:39:52;;;;;;;17.70;5.40;;;;;;;;;;5033846;28;20029;-73
2023/08/14 06:42:18;;;;;;;19.20;5.25;;;;;;;;;;5035388;28;20104;-74
2023/08/14 06:44:44;;;;;;;16.58;5.93;;;;;;;;;;5036148;28;20021;-74
2023/08/14 06:47:10;;;;;;;14.63;5.80;;;;;;;;;;5036065;28;20034;-73
2023/08/14 06:49:36;;;;;;;16.58;5.70;;;;;;;;;;5035408;28;20034;-74
2023/08/14 06:52:02;;;;;;;17.15;5.60;;;;;;;;;;5035499;28;20428;-74
2023/08/14 06:54:28;;;;;;;17.98;6.47;;;;;;;;;;5035478;28;20109;-73
2023/08/14 06:56:54;;;;;;;14.65;5.57;;;;;;;;;;5035214;28;20061;-71
2023/08/14 06:59:20;;;;;;;14.48;5.50;;;;;;;;;;5035185;28;20483;-72
2023/08/14 07:01:46;;;;;;;18.88;6.65;;;;;;;;;;5035073;28;20036;-73
2023/08/14 07:04:12;;;;;;;15.10;5.45;;;;;;;;;;5035065;28;20101;-74
2023/08/14 07:06:38;;;;;;;10.82;5.45;;;;;;;;;;5035407;28;20031;-74
2023/08/14 07:09:04;;;;;;;13.75;6.30;;;;;;;;;;5035244;28;20112;-72
2023/08/14 07:11:38;;;;;;;15.77;5.32;;;;;;;;;;5035336;28;20036;-73
2023/08/14 07:14:04;;;;;;;16.80;5.07;;;;;;;;;;5035058;28;20383;-73
2023/08/14 07:16:30;;;;;;;14.82;5.18;;;;;;;;;;5035721;28;20529;-74
2023/08/14 07:18:56;;;;;;;17.15;4.75;;;;;;;;;;5037071;28;20116;-74
2023/08/14 07:21:22;;;;;;;18.33;5.05;;;;;;;;;;5037749;28;20049;-75
2023/08/14 07:23:48;;;;;;;23.83;10.10;;;;;;;;;;5036584;28;20030;-73
2023/08/14 07:26:15;;;;;;;10.00;4.60;;;;;;;;;;5045791;28;20399;-72
2023/08/14 07:28:41;;;;;;;14.07;4.60;;;;;;;;;;5036929;28;20021;-75
2023/08/14 07:31:07;;;;;;;23.52;10.43;;;;;;;;;;5035447;28;20025;-74
2023/08/14 07:33:34;;;;;;;28.60;10.30;;;;;;;;;;5036799;28;20030;-74
2023/08/14 07:36:00;;;;;;;21.60;6.70;;;;;;;;;;5035654;28;20026;-74
2023/08/14 07:38:26;;;;;;;17.63;6.70;;;;;;;;;;5034441;28;20143;-74
2023/08/14 07:40:53;;;;;;;25.42;9.57;;;;;;;;;;5035355;28;20021;-74
2023/08/14 07:43:19;;;;;;;13.20;5.05;;;;;;;;;;5036707;28;20025;-74
2023/08/14 07:45:45;;;;;;;30.42;9.98;;;;;;;;;;5038444;28;20041;-73
2023/08/14 07:48:11;;;;;;;12.32;4.45;;;;;;;;;;5036578;28;20029;-74
2023/08/14 07:50:37;;;;;;;12.60;4.28;;;;;;;;;;5035194;28;20160;-74
2023/08/14 07:53:03;;;;;;;15.98;5.28;;;;;;;;;;5033696;28;20025;-72
2023/08/14 07:55:29;;;;;;;17.08;4.70;;;;;;;;;;5034164;28;20511;-73
2023/08/14 07:57:55;;;;;;;13.48;5.20;;;;;;;;;;5034540;28;20029;-73
2023/08/14 08:00:22;;;;;;;23.45;4.70;;;;;;;;;;5034626;28;20028;-73
2023/08/14 08:02:48;;;;;;;16.30;3.90;;;;;;;;;;5034038;28;20033;-74
2023/08/14 08:05:15;;;;;;;21.92;5.72;;;;;;;;;;5034997;28;20049;-74
2023/08/14 08:07:41;;;;;;;21.55;6.22;;;;;;;;;;5034296;28;20017;-73
2023/08/14 08:10:07;;;;;;;16.75;4.38;;;;;;;;;;5036907;28;20112;-73
2023/08/14 08:12:33;;;;;;;17.23;6.55;;;;;;;;;;5032308;28;20029;-73
2023/08/14 08:14:59;;;;;;;14.02;5.78;;;;;;;;;;5033393;28;20049;-74
2023/08/14 08:17:25;;;;;;;19.30;4.68;;;;;;;;;;5034073;28;20041;-74
2023/08/14 08:19:52;;;;;;;12.98;4.00;;;;;;;;;;5033924;28;20485;-75
2023/08/14 08:22:18;;;;;;;14.13;4.03;;;;;;;;;;5033379;28;20014;-74
2023/08/14 08:24:44;;;;;;;17.50;4.10;;;;;;;;;;5033923;28;20065;-74
2023/08/14 08:27:10;;;;;;;22.00;4.30;;;;;;;;;;5038037;28;20028;-73
2023/08/14 08:29:36;;;;;;;12.15;3.70;;;;;;;;;;5041068;28;20033;-74
2023/08/14 08:32:02;;;;;;;28.30;10.52;;;;;;;;;;5041165;28;20454;-73
2023/08/14 08:34:28;;;;;;;19.60;6.65;;;;;;;;;;5035420;28;20033;-73
2023/08/14 08:36:54;;;;;;;24.70;4.28;;;;;;;;;;5050543;28;20400;-74
2023/08/14 08:39:21;;;;;;;18.23;4.07;;;;;;;;;;5053893;28;20056;-74
2023/08/14 08:41:47;;;;;;;16.00;4.07;;;;;;;;;;5053748;28;20031;-74
2023/08/14 08:44:21;;;;;;;11.50;4.15;;;;;;;;;;5055094;28;20108;-74
2023/08/14 08:46:53;;;;;;;20.58;6.68;;;;;;;;;;5054107;28;20013;-73
2023/08/14 08:49:19;;;;;;;13.77;4.60;;;;;;;;;;5053267;28;20570;-75
2023/08/14 08:51:45;;;;;;;13.98;4.82;;;;;;;;;;5055387;28;20119;-77
2023/08/14 08:54:15;;;;;;;17.63;4.13;;;;;;;;;;5059086;28;20051;-76
2023/08/14 08:56:41;;;;;;;24.27;5.25;;;;;;;;;;5056590;28;20016;-77
2023/08/14 08:59:08;;;;;;;23.65;13.63;;;;;;;;;;5054996;28;20560;-78
2023/08/14 09:01:34;;;;;;;16.27;4.55;;;;;;;;;;5053847;28;20036;-77
2023/08/14 09:04:01;;;;;;;18.33;4.32;;;;;;;;;;5053191;28;20021;-77
2023/08/14 09:06:27;;;;;;;10.23;3.35;;;;;;;;;;5052887;28;20090;-76
2023/08/14 09:08:54;;;;;;;11.60;3.78;;;;;;;;;;5053284;28;20032;-76
2023/08/14 09:11:20;;;;;;;10.52;3.15;;;;;;;;;;5052531;28;20044;-76
2023/08/14 09:13:46;;;;;;;12.32;4.05;;;;;;;;;;5052568;28;20036;-77
2023/08/14 09:16:15;;;;;;;12.52;4.28;;;;;;;;;;5053677;28;20028;-73
2023/08/14 09:18:45;;;;;;;14.52;4.57;;;;;;;;;;5053296;28;20028;-77
2023/08/14 09:21:15;;;;;;;17.23;3.85;;;;;;;;;;5053384;28;20486;-75
2023/08/14 09:23:41;;;;;;;12.77;3.70;;;;;;;;;;5052467;28;20017;-75
2023/08/14 09:26:08;;;;;;;11.18;3.47;;;;;;;;;;5051547;28;20028;-73
2023/08/14 09:28:34;;;;;;;15.20;3.13;;;;;;;;;;5052300;28;20048;-74
2023/08/14 09:31:07;;;;;;;14.05;4.85;;;;;;;;;;5052743;28;20025;-72
2023/08/14 09:33:33;;;;;;;20.55;4.65;;;;;;;;;;5051847;28;20025;-74
2023/08/14 09:35:59;;;;;;;17.30;3.88;;;;;;;;;;5053404;28;20033;-73
2023/08/14 09:38:25;;;;;;;14.75;3.70;;;;;;;;;;5054781;28;20048;-78
2023/08/14 09:41:00;;;;;;;15.82;4.47;;;;;;;;;;5053615;28;20032;-75
2023/08/14 09:43:26;;;;;;;13.93;3.80;;;;;;;;;;5052651;28;20383;-77
2023/08/14 09:45:52;;;;;;;15.85;4.60;;;;;;;;;;5052962;28;20051;-76
2023/08/14 09:48:19;;;;;;;16.98;3.72;;;;;;;;;;5052582;28;20488;-74
2023/08/14 09:50:49;;;;;;;10.05;3.55;;;;;;;;;;5056097;28;20029;-76
2023/08/14 09:53:15;;;;;;;8.43;3.08;;;;;;;;;;5053140;28;20017;-73
2023/08/14 09:55:42;;;;;;;11.02;3.83;;;;;;;;;;5053681;28;20036;-75
2023/08/14 09:58:08;;;;;;;12.95;3.65;;;;;;;;;;5053321;28;20063;-75
2023/08/14 10:00:34;;;;;;;12.00;3.90;;;;;;;;;;5051933;28;20025;-77
2023/08/14 10:03:01;;;;;;;19.40;4.13;;;;;;;;;;5052283;28;20583;-75
2023/08/14 10:05:27;;;;;;;10.77;3.55;;;;;;;;;;5051594;28;20032;-75
2023/08/14 10:07:54;;;;;;;25.50;4.65;;;;;;;;;;5052208;28;20028;-75
2023/08/14 10:10:21;;;;;;;11.15;3.75;;;;;;;;;;5051926;28;20479;-76
2023/08/14 10:13:04;;;;;;;10.63;3.10;;;;;;;;;;5051499;28;20033;-76
2023/08/14 10:15:33;;;;;;;13.05;3.47;;;;;;;;;;5051838;28;20099;-76
2023/08/14 10:18:02;;;;;;;13.50;3.67;;;;;;;;;;5051801;28;20040;-76
2023/08/14 10:20:30;;;;;;;15.18;3.50;;;;;;;;;;5046495;28;20014;-75
2023/08/14 10:22:56;;;;;;;10.15;3.45;;;;;;;;;;5029785;28;20104;-73
2023/08/14 10:25:23;;;;;;;10.00;3.53;;;;;;;;;;5030105;28;20025;-73
2023/08/14 10:27:50;;;;;;;11.27;3.15;;;;;;;;;;5030423;28;20040;-73
2023/08/14 10:30:17;;;;;;;17.77;3.78;;;;;;;;;;5030338;28;20033;-74
2023/08/14 10:32:43;;;;;;;10.07;3.15;;;;;;;;;;5029385;28;20017;-73
2023/08/14 10:35:11;;;;;;;8.02;3.05;;;;;;;;;;5030509;28;20025;-73
2023/08/14 10:37:43;;;;;;;10.02;2.80;;;;;;;;;;5030579;28;20021;-74
2023/08/14 10:40:16;;;;;;;17.58;3.00;;;;;;;;;;5031030;28;20033;-73
2023/08/14 10:42:44;;;;;;;7.53;3.13;;;;;;;;;;5030440;28;20022;-74
2023/08/14 10:45:10;;;;;;;13.27;3.38;;;;;;;;;;5030241;28;20032;-73
2023/08/14 10:47:38;;;;;;;11.15;3.25;;;;;;;;;;5029975;28;20052;-74
2023/08/14 10:50:14;;;;;;;10.52;3.60;;;;;;;;;;5030053;28;20022;-74
2023/08/14 10:52:41;;;;;;;14.07;2.95;;;;;;;;;;5028785;28;20061;-74
2023/08/14 10:55:15;;;;;;;11.50;3.10;;;;;;;;;;5030241;28;20029;-73
2023/08/14 10:57:41;;;;;;;12.00;3.75;;;;;;;;;;5028746;28;20030;-74
2023/08/14 11:00:20;;;;;;;9.20;3.20;;;;;;;;;;5030097;28;20026;-74
2023/08/14 11:02:50;;;;;;;10.15;3.40;;;;;;;;;;5030012;28;20523;-75
2023/08/14 11:05:18;;;;;;;11.32;3.28;;;;;;;;;;5032885;28;20022;-75
2023/08/14 11:07:57;;;;;;;12.80;3.40;;;;;;;;;;5031999;28;20048;-73
2023/08/14 11:10:25;;;;;;;9.73;3.50;;;;;;;;;;5030358;28;20147;-74
2023/08/14 11:12:51;;;;;;;9.55;3.22;;;;;;;;;;5031028;28;20487;-74
2023/08/14 11:15:19;;;;;;;9.85;3.25;;;;;;;;;;5031251;28;20111;-73
2023/08/14 11:17:45;;;;;;;9.73;3.17;;;;;;;;;;5032914;28;20492;-71
2023/08/14 11:20:12;;;;;;;9.55;3.03;;;;;;;;;;5030854;28;20089;-73
2023/08/14 11:22:38;;;;;;;12.27;3.75;;;;;;;;;;5030587;28;20037;-73
2023/08/14 11:25:05;;;;;;;9.48;3.08;;;;;;;;;;5031180;28;20070;-75
2023/08/14 11:27:31;;;;;;;13.52;3.58;;;;;;;;;;5030814;28;20018;-75
2023/08/14 11:29:57;;;;;;;12.90;3.08;;;;;;;;;;5033131;28;20033;-74
2023/08/14 11:32:23;;;;;;;9.35;3.13;;;;;;;;;;5046098;28;20086;-73
2023/08/14 11:34:49;;;;;;;7.85;3.13;;;;;;;;;;5054128;28;20522;-74
2023/08/14 11:37:15;;;;;;;14.68;3.63;;;;;;;;;;5054429;28;20118;-73
2023/08/14 11:39:42;;;;;;;10.50;3.40;;;;;;;;;;5054069;28;20037;-78
2023/08/14 11:42:09;;;;;;;11.63;3.25;;;;;;;;;;5053925;28;20029;-75
2023/08/14 11:44:35;;;;;;;11.20;3.42;;;;;;;;;;5054069;28;20319;-75
2023/08/14 11:47:02;;;;;;;11.50;3.78;;;;;;;;;;5054263;28;20458;-76
2023/08/14 11:49:30;;;;;;;10.50;3.30;;;;;;;;;;5054161;28;20021;-75
2023/08/14 11:51:57;;;;;;;8.27;3.00;;;;;;;;;;5053261;28;20037;-74
2023/08/14 11:54:23;;;;;;;10.98;3.28;;;;;;;;;;5056969;28;20506;-74
2023/08/14 11:56:49;;;;;;;7.53;3.08;;;;;;;;;;5055014;28;20029;-73
2023/08/14 11:59:17;;;;;;;8.57;3.13;;;;;;;;;;5053626;28;20029;-74
2023/08/14 12:01:43;;;;;;;7.72;2.67;;;;;;;;;;5053938;28;20391;-73
2023/08/14 12:04:10;;;;;;;15.88;3.22;;;;;;;;;;5053718;28;20025;-73
2023/08/14 12:06:36;;;;;;;11.02;3.03;;;;;;;;;;5054452;28;20025;-74
2023/08/14 12:09:06;;;;;;;9.15;3.00;;;;;;;;;;5055243;28;20131;-72
2023/08/14 12:11:32;;;;;;;8.00;2.90;;;;;;;;;;5053862;28;20437;-73
2023/08/14 12:14:03;;;;;;;15.18;3.28;;;;;;;;;;5053676;28;20037;-74
2023/08/14 12:16:30;;;;;;;10.70;3.40;;;;;;;;;;5053781;28;20086;-73
2023/08/14 12:18:56;;;;;;;11.32;3.22;;;;;;;;;;5053595;28;20059;-74
2023/08/14 12:21:27;;;;;;;8.80;3.45;;;;;;;;;;5054919;28;20017;-73
2023/08/14 12:23:54;;;;;;;9.90;2.80;;;;;;;;;;5054767;28;20478;-73
2023/08/14 12:26:20;;;;;;;11.13;3.50;;;;;;;;;;5056437;28;20052;-75
2023/08/14 12:28:46;;;;;;;14.50;3.65;;;;;;;;;;5055393;28;20029;-74
2023/08/14 12:31:13;;;;;;;10.48;3.72;;;;;;;;;;5054547;28;20092;-76
2023/08/14 12:33:43;;;;;;;19.30;7.45;;;;;;;;;;5053457;28;20578;-73
2023/08/14 12:36:10;;;;;;;12.82;4.28;;;;;;;;;;5045476;28;20029;-74
2023/08/14 12:38:37;;;;;;;15.88;3.53;;;;;;;;;;5035560;28;20026;-75
2023/08/14 12:41:03;;;;;;;11.98;3.05;;;;;;;;;;5038093;28;20040;-73
2023/08/14 12:43:29;;;;;;;11.27;3.40;;;;;;;;;;5035112;28;20562;-76
2023/08/14 12:45:56;;;;;;;7.72;3.00;;;;;;;;;;5035359;28;20159;-75
2023/08/14 12:48:22;;;;;;;6.32;2.72;;;;;;;;;;5034105;28;20037;-75
2023/08/14 12:50:47;;;;;;;13.38;3.75;;;;;;;;;;5033459;28;20017;-74
2023/08/14 12:53:16;;;;;;;11.75;3.15;;;;;;;;;;5032736;28;20386;-75
2023/08/14 12:55:43;;;;;;;6.40;2.47;;;;;;;;;;5033111;28;20021;-75
2023/08/14 12:58:09;;;;;;;11.13;3.00;;;;;;;;;;5033606;28;20079;-76
2023/08/14 13:00:35;;;;;;;10.73;3.35;;;;;;;;;;5033679;28;20029;-75
2023/08/14 13:03:01;;;;;;;9.95;3.28;;;;;;;;;;5033439;28;20052;-74
2023/08/14 13:05:27;;;;;;;10.95;3.30;;;;;;;;;;5033058;28;20029;-74
2023/08/14 13:07:53;;;;;;;9.32;3.20;;;;;;;;;;5033007;28;20080;-75
2023/08/14 13:10:19;;;;;;;9.43;3.80;;;;;;;;;;5033339;28;20061;-74
2023/08/14 13:12:45;;;;;;;8.30;3.60;;;;;;;;;;5033906;28;20368;-73
2023/08/14 13:15:11;;;;;;;12.15;3.15;;;;;;;;;;5033214;28;20041;-75
2023/08/14 13:17:37;;;;;;;7.90;3.10;;;;;;;;;;5034392;28;20104;-75
2023/08/14 13:20:03;;;;;;;12.68;3.22;;;;;;;;;;5032957;28;20398;-73
2023/08/14 13:22:29;;;;;;;10.15;3.35;;;;;;;;;;5032565;28;20206;-76
2023/08/14 13:24:55;;;;;;;11.70;3.53;;;;;;;;;;5032705;28;20025;-75
2023/08/14 13:27:21;;;;;;;8.45;3.30;;;;;;;;;;5032470;28;20044;-73
2023/08/14 13:29:47;;;;;;;12.98;3.30;;;;;;;;;;5031305;28;20456;-75
2023/08/14 13:32:13;;;;;;;8.23;2.45;;;;;;;;;;5032518;28;20085;-74
2023/08/14 13:34:39;;;;;;;8.63;3.88;;;;;;;;;;5032550;28;20092;-77
2023/08/14 13:37:05;;;;;;;8.55;3.50;;;;;;;;;;5032383;28;20032;-74
2023/08/14 13:39:31;;;;;;;7.90;3.20;;;;;;;;;;5032274;28;20029;-75
2023/08/14 13:41:57;;;;;;;9.82;3.25;;;;;;;;;;5031748;28;20079;-76
2023/08/14 13:44:23;;;;;;;7.55;3.08;;;;;;;;;;5032280;28;20386;-74
2023/08/14 13:46:49;;;;;;;12.32;3.58;;;;;;;;;;5031971;28;20036;-75
2023/08/14 13:49:15;;;;;;;11.40;2.75;;;;;;;;;;5032184;28;20027;-74
2023/08/14 13:51:43;;;;;;;6.55;2.72;;;;;;;;;;5031739;28;20022;-76
2023/08/14 13:54:09;;;;;;;6.07;2.30;;;;;;;;;;5032105;28;20534;-75
2023/08/14 13:56:35;;;;;;;9.93;2.65;;;;;;;;;;5031928;28;20064;-76
2023/08/14 13:59:01;;;;;;;8.90;3.17;;;;;;;;;;5032106;28;20030;-76
2023/08/14 14:01:27;;;;;;;8.57;2.85;;;;;;;;;;5032082;28;20040;-75
2023/08/14 14:03:53;;;;;;;6.97;2.42;;;;;;;;;;5031810;28;20018;-73
2023/08/14 14:06:19;;;;;;;7.28;2.50;;;;;;;;;;5032027;28;20391;-75
2023/08/14 14:08:46;;;;;;;6.82;2.58;;;;;;;;;;5030288;28;20021;-75
2023/08/14 14:11:12;;;;;;;6.68;2.53;;;;;;;;;;5030911;28;20032;-76
2023/08/14 14:13:38;;;;;;;8.85;2.80;;;;;;;;;;5030504;28;20033;-74
2023/08/14 14:16:04;;;;;;;5.93;2.58;;;;;;;;;;5030862;28;20029;-74
2023/08/14 14:18:30;;;;;;;9.75;2.70;;;;;;;;;;5031108;28;20048;-75
2023/08/14 14:20:56;;;;;;;8.40;2.80;;;;;;;;;;5031385;28;20107;-77
2023/08/14 14:23:22;;;;;;;11.98;2.67;;;;;;;;;;5030051;28;20430;-76
2023/08/14 14:25:48;;;;;;;10.30;3.25;;;;;;;;;;5031223;28;20152;-77
2023/08/14 14:28:14;;;;;;;10.23;5.93;;;;;;;;;;5031705;28;20022;-75